sensor_id;sensor_type;location;lat;lon;timestamp;P1;durP1;ratioP1;P2;durP2;ratioP2
5042;SDS011;2540;50.928;6.856;2023-05-01T00:01:21;5.00;;;2.73;;
5042;SDS011;2540;50.928;6.856;2023-05-01T00:03:47;15.43;;;2.77;;
5042;SDS011;2540;50.928;6.856;2023-05-01T00:06:12;6.30;;;3.20;;
5042;SDS011;2540;50.928;6.856;2023-05-01T00:08:38;6.90;;;3.77;;
5042;SDS011;2540;50.928;6.856;2023-05-01T00:11:03;7.87;;;3.57;;
5042;SDS011;2540;50.928;6.856;2023-05-01T00:13:29;9.20;;;4.40;;
5042;SDS011;2540;50.928;6.856;2023-05-01T00:15:55;8.53;;;4.27;;
5042;SDS011;2540;50.928;6.856;2023-05-01T00:18:20;11.37;;;4.60;;
5042;SDS011;2540;50.928;6.856;2023-05-01T00:20:46;9.73;;;4.73;;
5042;SDS011;2540;50.928;6.856;2023-05-01T00:23:11;11.67;;;4.93;;
5042;SDS011;2540;50.928;6.856;2023-05-01T00:25:37;12.80;;;5.20;;
5042;SDS011;2540;50.928;6.856;2023-05-01T00:28:03;9.10;;;4.60;;
5042;SDS011;2540;50.928;6.856;2023-05-01T00:30:31;9.93;;;4.27;;
5042;SDS011;2540;50.928;6.856;2023-05-01T00:32:57;7.60;;;3.93;;
5042;SDS011;2540;50.928;6.856;2023-05-01T00:35:23;9.50;;;4.77;;
5042;SDS011;2540;50.928;6.856;2023-05-01T00:37:48;7.33;;;3.63;;
5042;SDS011;2540;50.928;6.856;2023-05-01T00:40:14;9.60;;;3.90;;
5042;SDS011;2540;50.928;6.856;2023-05-01T00:42:39;8.30;;;3.20;;
5042;SDS011;2540;50.928;6.856;2023-05-01T00:45:05;5.40;;;3.30;;
5042;SDS011;2540;50.928;6.856;2023-05-01T00:47:32;6.63;;;3.00;;
5042;SDS011;2540;50.928;6.856;2023-05-01T00:49:59;3.77;;;2.00;;
5042;SDS011;2540;50.928;6.856;2023-05-01T00:52:24;8.07;;;2.80;;
5042;SDS011;2540;50.928;6.856;2023-05-01T00:54:50;5.53;;;2.27;;
5042;SDS011;2540;50.928;6.856;2023-05-01T00:57:19;3.57;;;2.60;;
5042;SDS011;2540;50.928;6.856;2023-05-01T00:59:45;6.30;;;2.73;;
5042;SDS011;2540;50.928;6.856;2023-05-01T01:02:11;2.87;;;2.27;;
5042;SDS011;2540;50.928;6.856;2023-05-01T01:04:37;2.20;;;2.10;;
5042;SDS011;2540;50.928;6.856;2023-05-01T01:07:06;2.40;;;2.20;;
5042;SDS011;2540;50.928;6.856;2023-05-01T01:09:50;5.60;;;2.87;;
5042;SDS011;2540;50.928;6.856;2023-05-01T01:17:50;3.80;;;1.90;;
5042;SDS011;2540;50.928;6.856;2023-05-01T01:20:33;5.60;;;2.43;;
5042;SDS011;2540;50.928;6.856;2023-05-01T01:23:12;2.80;;;2.17;;
5042;SDS011;2540;50.928;6.856;2023-05-01T01:31:20;5.00;;;2.30;;
5042;SDS011;2540;50.928;6.856;2023-05-01T01:34:18;8.87;;;2.70;;
5042;SDS011;2540;50.928;6.856;2023-05-01T01:37:07;5.90;;;2.77;;
5042;SDS011;2540;50.928;6.856;2023-05-01T01:42:14;12.27;;;3.30;;
5042;SDS011;2540;50.928;6.856;2023-05-01T01:44:46;5.27;;;2.37;;
5042;SDS011;2540;50.928;6.856;2023-05-01T01:47:15;2.43;;;2.20;;
5042;SDS011;2540;50.928;6.856;2023-05-01T01:49:45;4.97;;;2.40;;
5042;SDS011;2540;50.928;6.856;2023-05-01T01:52:14;2.10;;;1.80;;
5042;SDS011;2540;50.928;6.856;2023-05-01T01:54:42;2.63;;;2.40;;
5042;SDS011;2540;50.928;6.856;2023-05-01T01:57:11;3.80;;;2.10;;
5042;SDS011;2540;50.928;6.856;2023-05-01T01:59:38;2.80;;;2.40;;
5042;SDS011;2540;50.928;6.856;2023-05-01T02:02:05;4.70;;;2.73;;
5042;SDS011;2540;50.928;6.856;2023-05-01T02:04:31;2.90;;;2.40;;
5042;SDS011;2540;50.928;6.856;2023-05-01T02:06:58;4.20;;;2.53;;
5042;SDS011;2540;50.928;6.856;2023-05-01T02:09:25;2.40;;;2.20;;
5042;SDS011;2540;50.928;6.856;2023-05-01T02:11:52;4.23;;;2.47;;
5042;SDS011;2540;50.928;6.856;2023-05-01T02:14:21;3.30;;;2.50;;
5042;SDS011;2540;50.928;6.856;2023-05-01T02:16:49;5.07;;;2.80;;
5042;SDS011;2540;50.928;6.856;2023-05-01T02:19:15;4.60;;;2.30;;
5042;SDS011;2540;50.928;6.856;2023-05-01T02:21:41;3.00;;;2.43;;
5042;SDS011;2540;50.928;6.856;2023-05-01T02:24:06;2.70;;;2.43;;
5042;SDS011;2540;50.928;6.856;2023-05-01T02:26:34;7.10;;;3.27;;
5042;SDS011;2540;50.928;6.856;2023-05-01T02:29:04;2.73;;;2.40;;
5042;SDS011;2540;50.928;6.856;2023-05-01T02:31:31;4.37;;;2.80;;
5042;SDS011;2540;50.928;6.856;2023-05-01T02:33:56;5.53;;;3.20;;
5042;SDS011;2540;50.928;6.856;2023-05-01T02:36:22;4.30;;;2.60;;
5042;SDS011;2540;50.928;6.856;2023-05-01T02:38:47;4.63;;;2.93;;
5042;SDS011;2540;50.928;6.856;2023-05-01T02:41:15;3.77;;;2.40;;
5042;SDS011;2540;50.928;6.856;2023-05-01T02:43:40;5.37;;;2.80;;
5042;SDS011;2540;50.928;6.856;2023-05-01T02:46:06;3.00;;;2.60;;
5042;SDS011;2540;50.928;6.856;2023-05-01T02:48:34;2.80;;;2.43;;
5042;SDS011;2540;50.928;6.856;2023-05-01T02:51:01;9.93;;;3.40;;
5042;SDS011;2540;50.928;6.856;2023-05-01T02:53:28;4.43;;;2.47;;
5042;SDS011;2540;50.928;6.856;2023-05-01T02:55:54;5.90;;;2.40;;
5042;SDS011;2540;50.928;6.856;2023-05-01T02:58:20;3.90;;;2.53;;
5042;SDS011;2540;50.928;6.856;2023-05-01T03:00:47;4.30;;;2.80;;
5042;SDS011;2540;50.928;6.856;2023-05-01T03:03:13;4.73;;;2.90;;
5042;SDS011;2540;50.928;6.856;2023-05-01T03:05:39;6.37;;;2.47;;
5042;SDS011;2540;50.928;6.856;2023-05-01T03:08:05;8.40;;;2.83;;
5042;SDS011;2540;50.928;6.856;2023-05-01T03:10:31;4.57;;;2.80;;
5042;SDS011;2540;50.928;6.856;2023-05-01T03:12:57;3.10;;;2.60;;
5042;SDS011;2540;50.928;6.856;2023-05-01T03:15:22;4.07;;;2.47;;
5042;SDS011;2540;50.928;6.856;2023-05-01T03:17:47;3.43;;;2.50;;
5042;SDS011;2540;50.928;6.856;2023-05-01T03:20:13;4.40;;;2.57;;
5042;SDS011;2540;50.928;6.856;2023-05-01T03:22:38;5.40;;;3.30;;
5042;SDS011;2540;50.928;6.856;2023-05-01T03:25:04;5.27;;;2.90;;
5042;SDS011;2540;50.928;6.856;2023-05-01T03:27:29;3.00;;;2.47;;
5042;SDS011;2540;50.928;6.856;2023-05-01T03:29:55;4.20;;;2.93;;
5042;SDS011;2540;50.928;6.856;2023-05-01T03:32:20;7.37;;;3.60;;
5042;SDS011;2540;50.928;6.856;2023-05-01T03:34:46;3.97;;;2.90;;
5042;SDS011;2540;50.928;6.856;2023-05-01T03:37:12;6.43;;;4.00;;
5042;SDS011;2540;50.928;6.856;2023-05-01T03:39:37;6.90;;;4.30;;
5042;SDS011;2540;50.928;6.856;2023-05-01T03:42:03;8.03;;;3.83;;
5042;SDS011;2540;50.928;6.856;2023-05-01T03:44:29;8.80;;;4.20;;
5042;SDS011;2540;50.928;6.856;2023-05-01T03:46:54;7.60;;;4.30;;
5042;SDS011;2540;50.928;6.856;2023-05-01T03:49:19;8.97;;;4.13;;
5042;SDS011;2540;50.928;6.856;2023-05-01T03:51:45;9.57;;;4.87;;
5042;SDS011;2540;50.928;6.856;2023-05-01T03:54:10;11.20;;;5.13;;
5042;SDS011;2540;50.928;6.856;2023-05-01T03:56:35;8.70;;;3.93;;
5042;SDS011;2540;50.928;6.856;2023-05-01T03:59:02;9.23;;;4.40;;
5042;SDS011;2540;50.928;6.856;2023-05-01T04:01:28;8.30;;;3.50;;
5042;SDS011;2540;50.928;6.856;2023-05-01T04:03:53;8.93;;;4.27;;
5042;SDS011;2540;50.928;6.856;2023-05-01T04:06:19;10.70;;;4.97;;
5042;SDS011;2540;50.928;6.856;2023-05-01T04:08:44;8.03;;;4.00;;
5042;SDS011;2540;50.928;6.856;2023-05-01T04:11:10;10.03;;;3.60;;
5042;SDS011;2540;50.928;6.856;2023-05-01T04:13:35;6.50;;;3.30;;
5042;SDS011;2540;50.928;6.856;2023-05-01T04:16:00;7.80;;;3.70;;
5042;SDS011;2540;50.928;6.856;2023-05-01T04:18:26;8.83;;;3.67;;
5042;SDS011;2540;50.928;6.856;2023-05-01T04:20:52;9.03;;;4.20;;
5042;SDS011;2540;50.928;6.856;2023-05-01T04:23:17;6.13;;;3.73;;
5042;SDS011;2540;50.928;6.856;2023-05-01T04:25:42;4.40;;;3.20;;
5042;SDS011;2540;50.928;6.856;2023-05-01T04:28:11;8.13;;;3.30;;
5042;SDS011;2540;50.928;6.856;2023-05-01T04:30:37;6.93;;;3.30;;
5042;SDS011;2540;50.928;6.856;2023-05-01T04:33:02;4.80;;;3.50;;
5042;SDS011;2540;50.928;6.856;2023-05-01T04:35:35;5.00;;;3.30;;
5042;SDS011;2540;50.928;6.856;2023-05-01T04:38:04;6.40;;;3.40;;
5042;SDS011;2540;50.928;6.856;2023-05-01T04:40:29;8.30;;;4.00;;
5042;SDS011;2540;50.928;6.856;2023-05-01T04:42:55;6.77;;;3.10;;
5042;SDS011;2540;50.928;6.856;2023-05-01T04:45:20;4.70;;;3.17;;
5042;SDS011;2540;50.928;6.856;2023-05-01T04:47:46;5.47;;;3.30;;
5042;SDS011;2540;50.928;6.856;2023-05-01T04:50:11;5.63;;;3.60;;
5042;SDS011;2540;50.928;6.856;2023-05-01T04:52:37;6.43;;;3.53;;
5042;SDS011;2540;50.928;6.856;2023-05-01T04:55:02;4.57;;;3.13;;
5042;SDS011;2540;50.928;6.856;2023-05-01T04:57:28;5.47;;;2.90;;
5042;SDS011;2540;50.928;6.856;2023-05-01T04:59:54;10.63;;;3.67;;
5042;SDS011;2540;50.928;6.856;2023-05-01T05:02:19;5.90;;;4.00;;
5042;SDS011;2540;50.928;6.856;2023-05-01T05:04:44;5.00;;;2.70;;
5042;SDS011;2540;50.928;6.856;2023-05-01T05:07:10;5.67;;;2.93;;
5042;SDS011;2540;50.928;6.856;2023-05-01T05:09:35;4.60;;;2.70;;
5042;SDS011;2540;50.928;6.856;2023-05-01T05:12:01;7.80;;;3.20;;
5042;SDS011;2540;50.928;6.856;2023-05-01T05:14:28;2.97;;;2.70;;
5042;SDS011;2540;50.928;6.856;2023-05-01T05:16:54;3.27;;;2.27;;
5042;SDS011;2540;50.928;6.856;2023-05-01T05:19:19;5.57;;;3.00;;
5042;SDS011;2540;50.928;6.856;2023-05-01T05:21:44;5.30;;;2.93;;
5042;SDS011;2540;50.928;6.856;2023-05-01T05:24:10;3.80;;;3.13;;
5042;SDS011;2540;50.928;6.856;2023-05-01T05:26:35;4.07;;;2.63;;
5042;SDS011;2540;50.928;6.856;2023-05-01T05:29:02;7.47;;;3.00;;
5042;SDS011;2540;50.928;6.856;2023-05-01T05:31:27;4.20;;;2.70;;
5042;SDS011;2540;50.928;6.856;2023-05-01T05:33:53;3.57;;;2.30;;
5042;SDS011;2540;50.928;6.856;2023-05-01T05:36:18;9.47;;;2.90;;
5042;SDS011;2540;50.928;6.856;2023-05-01T05:38:44;12.40;;;3.03;;
5042;SDS011;2540;50.928;6.856;2023-05-01T05:41:09;5.00;;;3.27;;
5042;SDS011;2540;50.928;6.856;2023-05-01T05:43:35;5.67;;;3.23;;
5042;SDS011;2540;50.928;6.856;2023-05-01T05:46:01;5.53;;;3.07;;
5042;SDS011;2540;50.928;6.856;2023-05-01T05:48:26;4.50;;;2.57;;
5042;SDS011;2540;50.928;6.856;2023-05-01T05:50:52;4.00;;;2.70;;
5042;SDS011;2540;50.928;6.856;2023-05-01T05:53:18;4.87;;;2.70;;
5042;SDS011;2540;50.928;6.856;2023-05-01T05:55:45;4.17;;;3.00;;
5042;SDS011;2540;50.928;6.856;2023-05-01T05:58:10;6.40;;;3.00;;
5042;SDS011;2540;50.928;6.856;2023-05-01T06:00:36;4.27;;;2.60;;
5042;SDS011;2540;50.928;6.856;2023-05-01T06:03:01;3.80;;;2.80;;
5042;SDS011;2540;50.928;6.856;2023-05-01T06:05:27;3.73;;;2.87;;
5042;SDS011;2540;50.928;6.856;2023-05-01T06:07:53;4.40;;;2.40;;
5042;SDS011;2540;50.928;6.856;2023-05-01T06:10:19;4.63;;;2.80;;
5042;SDS011;2540;50.928;6.856;2023-05-01T06:12:44;4.57;;;2.70;;
5042;SDS011;2540;50.928;6.856;2023-05-01T06:15:10;10.27;;;3.20;;
5042;SDS011;2540;50.928;6.856;2023-05-01T06:17:37;2.70;;;2.20;;
5042;SDS011;2540;50.928;6.856;2023-05-01T06:20:03;3.63;;;2.50;;
5042;SDS011;2540;50.928;6.856;2023-05-01T06:22:30;4.10;;;2.80;;
5042;SDS011;2540;50.928;6.856;2023-05-01T06:24:55;3.70;;;2.40;;
5042;SDS011;2540;50.928;6.856;2023-05-01T06:27:21;4.63;;;3.10;;
5042;SDS011;2540;50.928;6.856;2023-05-01T06:29:46;4.60;;;2.80;;
5042;SDS011;2540;50.928;6.856;2023-05-01T06:32:11;3.57;;;2.40;;
5042;SDS011;2540;50.928;6.856;2023-05-01T06:34:37;8.30;;;2.73;;
5042;SDS011;2540;50.928;6.856;2023-05-01T06:37:02;8.47;;;3.10;;
5042;SDS011;2540;50.928;6.856;2023-05-01T06:39:29;10.10;;;2.57;;
5042;SDS011;2540;50.928;6.856;2023-05-01T06:41:55;4.10;;;3.33;;
5042;SDS011;2540;50.928;6.856;2023-05-01T06:44:20;5.43;;;3.10;;
5042;SDS011;2540;50.928;6.856;2023-05-01T06:46:46;9.93;;;3.47;;
5042;SDS011;2540;50.928;6.856;2023-05-01T06:49:11;3.63;;;2.70;;
5042;SDS011;2540;50.928;6.856;2023-05-01T06:51:36;5.27;;;3.40;;
5042;SDS011;2540;50.928;6.856;2023-05-01T06:54:02;5.43;;;3.47;;
5042;SDS011;2540;50.928;6.856;2023-05-01T06:56:27;7.97;;;3.23;;
5042;SDS011;2540;50.928;6.856;2023-05-01T06:58:53;8.40;;;3.50;;
5042;SDS011;2540;50.928;6.856;2023-05-01T07:01:18;3.13;;;2.40;;
5042;SDS011;2540;50.928;6.856;2023-05-01T07:03:43;8.27;;;2.70;;
5042;SDS011;2540;50.928;6.856;2023-05-01T07:06:09;3.90;;;2.50;;
5042;SDS011;2540;50.928;6.856;2023-05-01T07:08:34;4.60;;;3.17;;
5042;SDS011;2540;50.928;6.856;2023-05-01T07:11:00;4.60;;;2.80;;
5042;SDS011;2540;50.928;6.856;2023-05-01T07:13:25;3.77;;;2.80;;
5042;SDS011;2540;50.928;6.856;2023-05-01T07:15:51;5.67;;;2.83;;
5042;SDS011;2540;50.928;6.856;2023-05-01T07:18:17;9.20;;;2.97;;
5042;SDS011;2540;50.928;6.856;2023-05-01T07:20:43;3.00;;;2.47;;
5042;SDS011;2540;50.928;6.856;2023-05-01T07:23:08;3.90;;;2.70;;
5042;SDS011;2540;50.928;6.856;2023-05-01T07:25:34;4.33;;;2.43;;
5042;SDS011;2540;50.928;6.856;2023-05-01T07:28:05;5.53;;;2.60;;
5042;SDS011;2540;50.928;6.856;2023-05-01T07:30:32;3.37;;;2.20;;
5042;SDS011;2540;50.928;6.856;2023-05-01T07:32:57;4.50;;;2.13;;
5042;SDS011;2540;50.928;6.856;2023-05-01T07:35:23;6.47;;;2.60;;
5042;SDS011;2540;50.928;6.856;2023-05-01T07:37:49;3.77;;;2.10;;
5042;SDS011;2540;50.928;6.856;2023-05-01T07:40:16;3.20;;;2.50;;
5042;SDS011;2540;50.928;6.856;2023-05-01T07:42:42;3.90;;;2.60;;
5042;SDS011;2540;50.928;6.856;2023-05-01T07:45:07;6.23;;;2.30;;
5042;SDS011;2540;50.928;6.856;2023-05-01T07:47:33;3.50;;;2.20;;
5042;SDS011;2540;50.928;6.856;2023-05-01T07:49:58;5.33;;;3.00;;
5042;SDS011;2540;50.928;6.856;2023-05-01T07:52:25;7.73;;;3.10;;
5042;SDS011;2540;50.928;6.856;2023-05-01T07:54:50;7.33;;;2.23;;
5042;SDS011;2540;50.928;6.856;2023-05-01T07:57:16;3.73;;;2.73;;
5042;SDS011;2540;50.928;6.856;2023-05-01T07:59:41;6.00;;;3.03;;
5042;SDS011;2540;50.928;6.856;2023-05-01T08:02:07;4.67;;;2.50;;
5042;SDS011;2540;50.928;6.856;2023-05-01T08:04:32;5.07;;;2.00;;
5042;SDS011;2540;50.928;6.856;2023-05-01T08:06:57;6.60;;;2.40;;
5042;SDS011;2540;50.928;6.856;2023-05-01T08:09:23;4.20;;;2.67;;
5042;SDS011;2540;50.928;6.856;2023-05-01T08:11:48;5.23;;;2.70;;
5042;SDS011;2540;50.928;6.856;2023-05-01T08:14:14;2.60;;;2.40;;
5042;SDS011;2540;50.928;6.856;2023-05-01T08:16:41;2.63;;;2.27;;
5042;SDS011;2540;50.928;6.856;2023-05-01T08:19:07;2.43;;;2.07;;
5042;SDS011;2540;50.928;6.856;2023-05-01T08:21:32;3.00;;;2.17;;
5042;SDS011;2540;50.928;6.856;2023-05-01T08:23:58;5.83;;;2.50;;
5042;SDS011;2540;50.928;6.856;2023-05-01T08:26:23;5.37;;;2.20;;
5042;SDS011;2540;50.928;6.856;2023-05-01T08:28:49;2.30;;;2.10;;
5042;SDS011;2540;50.928;6.856;2023-05-01T08:31:14;4.33;;;2.70;;
5042;SDS011;2540;50.928;6.856;2023-05-01T08:33:40;6.03;;;2.40;;
5042;SDS011;2540;50.928;6.856;2023-05-01T08:36:06;10.03;;;2.30;;
5042;SDS011;2540;50.928;6.856;2023-05-01T08:38:33;5.20;;;2.80;;
5042;SDS011;2540;50.928;6.856;2023-05-01T08:40:58;6.97;;;3.23;;
5042;SDS011;2540;50.928;6.856;2023-05-01T08:43:25;3.13;;;2.37;;
5042;SDS011;2540;50.928;6.856;2023-05-01T08:45:52;6.07;;;2.50;;
5042;SDS011;2540;50.928;6.856;2023-05-01T08:48:19;5.50;;;2.93;;
5042;SDS011;2540;50.928;6.856;2023-05-01T08:50:45;3.20;;;2.17;;
5042;SDS011;2540;50.928;6.856;2023-05-01T08:53:12;7.20;;;2.60;;
5042;SDS011;2540;50.928;6.856;2023-05-01T08:55:40;7.13;;;2.90;;
5042;SDS011;2540;50.928;6.856;2023-05-01T08:58:08;3.63;;;2.40;;
5042;SDS011;2540;50.928;6.856;2023-05-01T09:00:34;4.60;;;2.10;;
5042;SDS011;2540;50.928;6.856;2023-05-01T09:03:00;6.00;;;2.60;;
5042;SDS011;2540;50.928;6.856;2023-05-01T09:05:27;3.23;;;2.50;;
5042;SDS011;2540;50.928;6.856;2023-05-01T09:07:52;5.57;;;3.17;;
5042;SDS011;2540;50.928;6.856;2023-05-01T09:10:19;6.43;;;2.43;;
5042;SDS011;2540;50.928;6.856;2023-05-01T09:12:46;4.17;;;2.70;;
5042;SDS011;2540;50.928;6.856;2023-05-01T09:15:13;8.50;;;2.43;;
5042;SDS011;2540;50.928;6.856;2023-05-01T09:17:38;6.30;;;2.70;;
5042;SDS011;2540;50.928;6.856;2023-05-01T09:20:04;4.23;;;2.80;;
5042;SDS011;2540;50.928;6.856;2023-05-01T09:22:30;4.17;;;2.57;;
5042;SDS011;2540;50.928;6.856;2023-05-01T09:24:56;4.33;;;2.70;;
5042;SDS011;2540;50.928;6.856;2023-05-01T09:27:23;4.27;;;2.20;;
5042;SDS011;2540;50.928;6.856;2023-05-01T09:29:49;4.40;;;2.50;;
5042;SDS011;2540;50.928;6.856;2023-05-01T09:34:46;4.70;;;2.83;;
5042;SDS011;2540;50.928;6.856;2023-05-01T09:37:23;4.23;;;3.20;;
5042;SDS011;2540;50.928;6.856;2023-05-01T09:40:07;4.90;;;2.17;;
5042;SDS011;2540;50.928;6.856;2023-05-01T09:42:38;3.37;;;2.30;;
5042;SDS011;2540;50.928;6.856;2023-05-01T09:45:14;6.87;;;2.77;;
5042;SDS011;2540;50.928;6.856;2023-05-01T09:47:43;3.23;;;2.93;;
5042;SDS011;2540;50.928;6.856;2023-05-01T09:50:27;11.20;;;3.07;;
5042;SDS011;2540;50.928;6.856;2023-05-01T09:52:54;3.37;;;2.70;;
5042;SDS011;2540;50.928;6.856;2023-05-01T09:55:20;6.90;;;2.50;;
5042;SDS011;2540;50.928;6.856;2023-05-01T09:57:47;8.10;;;3.43;;
5042;SDS011;2540;50.928;6.856;2023-05-01T10:00:13;4.43;;;2.90;;
5042;SDS011;2540;50.928;6.856;2023-05-01T10:02:44;6.37;;;2.63;;
5042;SDS011;2540;50.928;6.856;2023-05-01T10:05:11;5.07;;;2.70;;
5042;SDS011;2540;50.928;6.856;2023-05-01T10:07:37;4.57;;;2.63;;
5042;SDS011;2540;50.928;6.856;2023-05-01T10:10:15;3.40;;;2.73;;
5042;SDS011;2540;50.928;6.856;2023-05-01T10:12:44;8.93;;;2.83;;
5042;SDS011;2540;50.928;6.856;2023-05-01T10:15:10;5.87;;;3.00;;
5042;SDS011;2540;50.928;6.856;2023-05-01T10:17:37;4.13;;;3.23;;
5042;SDS011;2540;50.928;6.856;2023-05-01T10:20:03;5.40;;;2.60;;
5042;SDS011;2540;50.928;6.856;2023-05-01T10:22:29;4.57;;;2.53;;
5042;SDS011;2540;50.928;6.856;2023-05-01T10:24:54;4.83;;;2.60;;
5042;SDS011;2540;50.928;6.856;2023-05-01T10:27:20;5.00;;;2.23;;
5042;SDS011;2540;50.928;6.856;2023-05-01T10:29:48;8.10;;;3.00;;
5042;SDS011;2540;50.928;6.856;2023-05-01T10:32:16;4.63;;;2.33;;
5042;SDS011;2540;50.928;6.856;2023-05-01T10:34:42;3.63;;;2.37;;
5042;SDS011;2540;50.928;6.856;2023-05-01T10:37:13;5.93;;;2.83;;
5042;SDS011;2540;50.928;6.856;2023-05-01T10:39:44;3.00;;;2.10;;
5042;SDS011;2540;50.928;6.856;2023-05-01T10:42:09;3.60;;;2.40;;
5042;SDS011;2540;50.928;6.856;2023-05-01T10:44:38;4.10;;;2.20;;
5042;SDS011;2540;50.928;6.856;2023-05-01T10:50:05;5.80;;;2.30;;
5042;SDS011;2540;50.928;6.856;2023-05-01T10:55:35;2.80;;;1.93;;
5042;SDS011;2540;50.928;6.856;2023-05-01T10:58:06;5.57;;;2.20;;
5042;SDS011;2540;50.928;6.856;2023-05-01T11:00:31;4.13;;;2.03;;
5042;SDS011;2540;50.928;6.856;2023-05-01T11:08:28;3.83;;;2.13;;
5042;SDS011;2540;50.928;6.856;2023-05-01T11:10:55;7.27;;;2.33;;
5042;SDS011;2540;50.928;6.856;2023-05-01T11:14:21;5.30;;;2.50;;
5042;SDS011;2540;50.928;6.856;2023-05-01T11:21:44;2.90;;;2.60;;
5042;SDS011;2540;50.928;6.856;2023-05-01T11:24:10;7.07;;;2.50;;
5042;SDS011;2540;50.928;6.856;2023-05-01T11:26:39;6.67;;;2.63;;
5042;SDS011;2540;50.928;6.856;2023-05-01T11:29:06;6.17;;;3.07;;
5042;SDS011;2540;50.928;6.856;2023-05-01T11:31:34;4.20;;;2.63;;
5042;SDS011;2540;50.928;6.856;2023-05-01T11:34:00;6.63;;;2.90;;
5042;SDS011;2540;50.928;6.856;2023-05-01T11:36:25;10.50;;;3.10;;
5042;SDS011;2540;50.928;6.856;2023-05-01T11:38:56;3.23;;;2.70;;
5042;SDS011;2540;50.928;6.856;2023-05-01T11:41:24;4.53;;;2.60;;
5042;SDS011;2540;50.928;6.856;2023-05-01T11:43:57;5.33;;;3.03;;
5042;SDS011;2540;50.928;6.856;2023-05-01T11:46:26;5.10;;;2.30;;
5042;SDS011;2540;50.928;6.856;2023-05-01T11:48:55;5.70;;;2.23;;
5042;SDS011;2540;50.928;6.856;2023-05-01T11:51:25;6.80;;;2.77;;
5042;SDS011;2540;50.928;6.856;2023-05-01T11:56:31;4.50;;;2.57;;
5042;SDS011;2540;50.928;6.856;2023-05-01T11:58:58;4.37;;;2.60;;
5042;SDS011;2540;50.928;6.856;2023-05-01T12:01:34;3.67;;;2.83;;
5042;SDS011;2540;50.928;6.856;2023-05-01T12:04:00;4.60;;;3.20;;
5042;SDS011;2540;50.928;6.856;2023-05-01T12:09:07;6.70;;;2.40;;
5042;SDS011;2540;50.928;6.856;2023-05-01T12:11:34;5.30;;;2.87;;
5042;SDS011;2540;50.928;6.856;2023-05-01T12:14:00;4.50;;;3.30;;
5042;SDS011;2540;50.928;6.856;2023-05-01T12:16:25;4.43;;;2.77;;
5042;SDS011;2540;50.928;6.856;2023-05-01T12:18:53;3.97;;;2.97;;
5042;SDS011;2540;50.928;6.856;2023-05-01T12:21:18;5.80;;;2.93;;
5042;SDS011;2540;50.928;6.856;2023-05-01T12:23:44;9.03;;;2.93;;
5042;SDS011;2540;50.928;6.856;2023-05-01T12:31:47;4.53;;;2.80;;
5042;SDS011;2540;50.928;6.856;2023-05-01T12:34:13;4.40;;;2.50;;
5042;SDS011;2540;50.928;6.856;2023-05-01T12:36:38;4.37;;;2.93;;
5042;SDS011;2540;50.928;6.856;2023-05-01T12:39:05;4.60;;;2.70;;
5042;SDS011;2540;50.928;6.856;2023-05-01T12:43:58;4.63;;;2.70;;
5042;SDS011;2540;50.928;6.856;2023-05-01T12:46:24;2.33;;;2.13;;
5042;SDS011;2540;50.928;6.856;2023-05-01T12:48:50;3.20;;;2.67;;
5042;SDS011;2540;50.928;6.856;2023-05-01T12:51:19;8.53;;;3.50;;
5042;SDS011;2540;50.928;6.856;2023-05-01T12:53:45;5.33;;;3.03;;
5042;SDS011;2540;50.928;6.856;2023-05-01T12:56:19;4.40;;;3.00;;
5042;SDS011;2540;50.928;6.856;2023-05-01T12:58:47;4.73;;;2.83;;
5042;SDS011;2540;50.928;6.856;2023-05-01T13:01:21;4.87;;;2.10;;
5042;SDS011;2540;50.928;6.856;2023-05-01T13:03:51;3.97;;;2.30;;
5042;SDS011;2540;50.928;6.856;2023-05-01T13:06:16;2.80;;;2.00;;
5042;SDS011;2540;50.928;6.856;2023-05-01T13:08:42;3.10;;;1.73;;
5042;SDS011;2540;50.928;6.856;2023-05-01T13:11:15;2.50;;;1.43;;
5042;SDS011;2540;50.928;6.856;2023-05-01T13:13:41;1.73;;;1.60;;
5042;SDS011;2540;50.928;6.856;2023-05-01T13:16:10;1.50;;;1.30;;
5042;SDS011;2540;50.928;6.856;2023-05-01T13:18:46;1.73;;;1.57;;
5042;SDS011;2540;50.928;6.856;2023-05-01T13:21:14;5.00;;;1.90;;
5042;SDS011;2540;50.928;6.856;2023-05-01T13:23:40;2.60;;;1.87;;
5042;SDS011;2540;50.928;6.856;2023-05-01T13:26:07;2.80;;;1.77;;
5042;SDS011;2540;50.928;6.856;2023-05-01T13:28:35;2.73;;;1.70;;
5042;SDS011;2540;50.928;6.856;2023-05-01T13:31:02;2.77;;;1.80;;
5042;SDS011;2540;50.928;6.856;2023-05-01T13:33:35;1.57;;;1.47;;
5042;SDS011;2540;50.928;6.856;2023-05-01T13:36:00;2.30;;;1.67;;
5042;SDS011;2540;50.928;6.856;2023-05-01T13:38:26;1.67;;;1.50;;
5042;SDS011;2540;50.928;6.856;2023-05-01T13:40:52;3.23;;;1.80;;
5042;SDS011;2540;50.928;6.856;2023-05-01T13:43:18;3.40;;;2.60;;
5042;SDS011;2540;50.928;6.856;2023-05-01T13:45:45;4.23;;;3.23;;
5042;SDS011;2540;50.928;6.856;2023-05-01T13:48:11;4.60;;;3.10;;
5042;SDS011;2540;50.928;6.856;2023-05-01T13:50:37;5.20;;;2.83;;
5042;SDS011;2540;50.928;6.856;2023-05-01T13:53:04;5.90;;;3.00;;
5042;SDS011;2540;50.928;6.856;2023-05-01T13:55:30;4.27;;;3.20;;
5042;SDS011;2540;50.928;6.856;2023-05-01T13:57:56;4.13;;;3.20;;
5042;SDS011;2540;50.928;6.856;2023-05-01T14:00:21;4.53;;;2.77;;
5042;SDS011;2540;50.928;6.856;2023-05-01T14:02:47;3.23;;;2.40;;
5042;SDS011;2540;50.928;6.856;2023-05-01T14:05:13;2.07;;;1.70;;
5042;SDS011;2540;50.928;6.856;2023-05-01T14:07:43;3.27;;;1.90;;
5042;SDS011;2540;50.928;6.856;2023-05-01T14:10:12;3.23;;;1.93;;
5042;SDS011;2540;50.928;6.856;2023-05-01T14:12:37;8.90;;;2.17;;
5042;SDS011;2540;50.928;6.856;2023-05-01T14:15:06;1.87;;;1.77;;
5042;SDS011;2540;50.928;6.856;2023-05-01T14:17:33;4.73;;;2.10;;
5042;SDS011;2540;50.928;6.856;2023-05-01T14:20:00;9.80;;;2.87;;
5042;SDS011;2540;50.928;6.856;2023-05-01T14:22:30;5.63;;;3.23;;
5042;SDS011;2540;50.928;6.856;2023-05-01T14:25:01;9.97;;;3.83;;
5042;SDS011;2540;50.928;6.856;2023-05-01T14:27:29;5.90;;;3.40;;
5042;SDS011;2540;50.928;6.856;2023-05-01T14:29:55;6.17;;;3.50;;
5042;SDS011;2540;50.928;6.856;2023-05-01T14:32:21;6.30;;;4.17;;
5042;SDS011;2540;50.928;6.856;2023-05-01T14:34:46;6.03;;;4.10;;
5042;SDS011;2540;50.928;6.856;2023-05-01T14:37:11;8.53;;;4.40;;
5042;SDS011;2540;50.928;6.856;2023-05-01T14:39:40;6.97;;;3.27;;
5042;SDS011;2540;50.928;6.856;2023-05-01T14:42:05;5.07;;;3.03;;
5042;SDS011;2540;50.928;6.856;2023-05-01T14:44:31;4.13;;;3.40;;
5042;SDS011;2540;50.928;6.856;2023-05-01T14:46:56;5.70;;;3.93;;
5042;SDS011;2540;50.928;6.856;2023-05-01T14:49:23;4.23;;;2.90;;
5042;SDS011;2540;50.928;6.856;2023-05-01T14:51:49;8.47;;;4.10;;
5042;SDS011;2540;50.928;6.856;2023-05-01T14:54:16;6.10;;;3.63;;
5042;SDS011;2540;50.928;6.856;2023-05-01T14:56:41;7.23;;;4.57;;
5042;SDS011;2540;50.928;6.856;2023-05-01T14:59:07;4.30;;;3.70;;
5042;SDS011;2540;50.928;6.856;2023-05-01T15:01:33;4.43;;;3.87;;
5042;SDS011;2540;50.928;6.856;2023-05-01T15:03:58;4.20;;;3.43;;
5042;SDS011;2540;50.928;6.856;2023-05-01T15:06:24;5.17;;;4.17;;
5042;SDS011;2540;50.928;6.856;2023-05-01T15:08:50;4.10;;;3.33;;
5042;SDS011;2540;50.928;6.856;2023-05-01T15:11:16;5.13;;;3.40;;
5042;SDS011;2540;50.928;6.856;2023-05-01T15:13:42;4.47;;;4.03;;
5042;SDS011;2540;50.928;6.856;2023-05-01T15:16:09;6.60;;;4.00;;
5042;SDS011;2540;50.928;6.856;2023-05-01T15:18:35;7.23;;;4.00;;
5042;SDS011;2540;50.928;6.856;2023-05-01T15:21:01;4.63;;;3.33;;
5042;SDS011;2540;50.928;6.856;2023-05-01T15:23:27;6.03;;;3.80;;
5042;SDS011;2540;50.928;6.856;2023-05-01T15:25:52;5.50;;;3.50;;
5042;SDS011;2540;50.928;6.856;2023-05-01T15:28:18;9.50;;;3.90;;
5042;SDS011;2540;50.928;6.856;2023-05-01T15:30:46;5.43;;;3.97;;
5042;SDS011;2540;50.928;6.856;2023-05-01T15:33:12;6.47;;;4.40;;
5042;SDS011;2540;50.928;6.856;2023-05-01T15:35:38;6.10;;;4.10;;
5042;SDS011;2540;50.928;6.856;2023-05-01T15:38:03;6.47;;;4.03;;
5042;SDS011;2540;50.928;6.856;2023-05-01T15:40:29;4.13;;;3.73;;
5042;SDS011;2540;50.928;6.856;2023-05-01T15:42:55;4.20;;;3.60;;
5042;SDS011;2540;50.928;6.856;2023-05-01T15:45:21;6.57;;;4.40;;
5042;SDS011;2540;50.928;6.856;2023-05-01T15:47:46;5.70;;;3.80;;
5042;SDS011;2540;50.928;6.856;2023-05-01T15:50:12;6.47;;;3.40;;
5042;SDS011;2540;50.928;6.856;2023-05-01T15:52:37;6.77;;;3.80;;
5042;SDS011;2540;50.928;6.856;2023-05-01T15:55:03;3.63;;;3.33;;
5042;SDS011;2540;50.928;6.856;2023-05-01T15:57:29;4.00;;;3.70;;
5042;SDS011;2540;50.928;6.856;2023-05-01T15:59:56;4.20;;;3.53;;